createdAt,value
2019-02-02T00:00:06.359Z,2.50
2019-02-02T00:04:17.379Z,2.50
2019-02-02T00:08:22.691Z,2.50
2019-02-02T00:12:30.859Z,2.60
2019-02-02T00:16:39.066Z,2.60
2019-02-02T00:20:47.285Z,2.50
2019-02-02T00:24:55.521Z,2.60
2019-02-02T00:29:03.706Z,2.60
2019-02-02T00:33:11.890Z,2.60
2019-02-02T00:37:20.365Z,2.60
2019-02-02T00:41:28.536Z,2.70
2019-02-02T00:45:36.844Z,2.70
2019-02-02T00:49:45.060Z,2.70
2019-02-02T00:53:53.229Z,2.70
2019-02-02T00:58:01.402Z,2.60
2019-02-02T01:02:09.627Z,2.60
2019-02-02T01:06:17.851Z,2.70
2019-02-02T01:10:28.636Z,2.70
2019-02-02T01:14:36.830Z,2.70
2019-02-02T01:18:45.051Z,2.70
2019-02-02T01:22:53.293Z,2.70
2019-02-02T01:27:01.450Z,2.70
2019-02-02T01:31:09.612Z,2.60
2019-02-02T01:35:17.810Z,2.60
2019-02-02T01:39:26.019Z,2.60
2019-02-02T01:43:34.223Z,2.60
2019-02-02T01:47:42.421Z,2.70
2019-02-02T01:51:50.606Z,2.70
2019-02-02T01:55:58.773Z,2.70
2019-02-02T02:00:09.556Z,2.70
2019-02-02T02:04:17.724Z,2.60
2019-02-02T02:08:25.912Z,2.50
2019-02-02T02:12:34.126Z,2.50
2019-02-02T02:16:42.437Z,2.40
2019-02-02T02:20:50.515Z,2.40
2019-02-02T02:24:58.681Z,2.40
2019-02-02T02:29:06.851Z,2.50
2019-02-02T02:33:15.022Z,2.50
2019-02-02T02:37:23.228Z,2.50
2019-02-02T02:41:31.522Z,2.50
2019-02-02T02:45:39.691Z,2.50
2019-02-02T02:49:47.847Z,2.50
2019-02-02T02:53:56.031Z,2.60
2019-02-02T02:58:04.207Z,2.60
2019-02-02T03:02:12.412Z,2.60
2019-02-02T03:06:20.581Z,2.60
2019-02-02T03:10:28.747Z,2.60
2019-02-02T03:14:36.917Z,2.60
2019-02-02T03:18:45.115Z,2.50
2019-02-02T03:22:53.326Z,2.50
2019-02-02T03:27:01.524Z,2.50
2019-02-02T03:31:09.713Z,2.50
2019-02-02T03:35:19.640Z,2.50
2019-02-02T03:39:27.835Z,2.50
2019-02-02T03:43:36.006Z,2.50
2019-02-02T03:47:44.165Z,2.50
2019-02-02T03:51:52.322Z,2.50
2019-02-02T03:56:00.508Z,2.50
2019-02-02T04:00:11.571Z,2.60
2019-02-02T04:04:19.734Z,2.60
2019-02-02T04:08:28.018Z,2.60
2019-02-02T04:12:36.103Z,2.60
2019-02-02T04:16:44.365Z,2.60
2019-02-02T04:20:52.504Z,2.50
2019-02-02T04:25:00.673Z,2.40
2019-02-02T04:29:17.610Z,2.40
2019-02-02T04:33:17.056Z,2.50
2019-02-02T04:37:25.271Z,2.50
2019-02-02T04:41:33.424Z,2.50
2019-02-02T04:45:41.594Z,2.50
2019-02-02T04:49:49.762Z,2.60
2019-02-02T04:53:58.242Z,2.60
2019-02-02T04:58:06.128Z,2.60
2019-02-02T05:02:14.309Z,2.50
2019-02-02T05:06:22.466Z,2.50
2019-02-02T05:10:30.638Z,2.50
2019-02-02T05:14:38.783Z,2.50
2019-02-02T05:18:46.960Z,2.50
2019-02-02T05:22:55.206Z,2.50
2019-02-02T05:27:03.363Z,2.50
2019-02-02T05:31:11.520Z,2.50
2019-02-02T05:35:19.690Z,2.60
2019-02-02T05:39:27.887Z,2.60
2019-02-02T05:43:36.054Z,2.60
2019-02-02T05:47:44.222Z,2.60
2019-02-02T05:51:52.371Z,2.60
2019-02-02T05:56:00.532Z,2.60
2019-02-02T06:00:12.521Z,2.50
2019-02-02T06:04:20.674Z,2.50
2019-02-02T06:08:28.840Z,2.50
2019-02-02T06:12:37.039Z,2.50
2019-02-02T06:16:45.261Z,2.50
2019-02-02T06:20:53.461Z,2.40
2019-02-02T06:25:01.594Z,2.40
2019-02-02T06:29:09.722Z,2.50
2019-02-02T06:33:17.886Z,2.50
2019-02-02T06:37:29.101Z,2.50
2019-02-02T06:41:37.238Z,2.50
2019-02-02T06:45:45.401Z,2.50
2019-02-02T06:49:53.689Z,2.50
2019-02-02T06:54:01.721Z,2.50
2019-02-02T06:58:09.874Z,2.60
2019-02-02T07:02:18.002Z,2.60
2019-02-02T07:06:26.141Z,2.60
2019-02-02T07:10:34.303Z,2.60
2019-02-02T07:14:42.488Z,2.60
2019-02-02T07:18:50.631Z,2.60
2019-02-02T07:22:58.801Z,2.70
2019-02-02T07:27:06.937Z,2.70
2019-02-02T07:31:15.103Z,2.70
2019-02-02T07:35:23.353Z,2.70
2019-02-02T07:39:31.501Z,2.70
2019-02-02T07:43:39.633Z,2.80
2019-02-02T07:47:47.761Z,2.80
2019-02-02T07:51:56.050Z,2.80
2019-02-02T07:56:04.549Z,2.70
2019-02-02T08:00:16.069Z,2.70
2019-02-02T08:04:24.050Z,2.70
2019-02-02T08:08:32.192Z,2.70
2019-02-02T08:12:40.330Z,2.70
2019-02-02T08:16:48.477Z,2.80
2019-02-02T08:20:56.593Z,2.90
2019-02-02T08:25:05.146Z,2.90
2019-02-02T08:29:13.278Z,3.10
2019-02-02T08:33:21.402Z,3.20
2019-02-02T08:37:29.538Z,3.20
2019-02-02T08:41:37.662Z,3.30
2019-02-02T08:45:45.789Z,3.40
2019-02-02T08:49:53.914Z,3.40
2019-02-02T08:54:03.506Z,3.50
2019-02-02T08:58:10.175Z,3.80
2019-02-02T09:02:18.284Z,4.00
2019-02-02T09:06:38.267Z,4.10
2019-02-02T09:10:34.686Z,4.20
2019-02-02T09:14:42.865Z,4.30
2019-02-02T09:18:51.463Z,4.40
2019-02-02T09:23:05.786Z,4.60
2019-02-02T09:27:07.288Z,4.80
2019-02-02T09:31:16.178Z,4.90
2019-02-02T09:35:23.566Z,5.00
2019-02-02T09:39:31.733Z,5.00
2019-02-02T09:43:39.887Z,5.00
2019-02-02T09:47:48.014Z,4.90
2019-02-02T09:51:56.149Z,4.90
2019-02-02T09:56:04.368Z,5.00
2019-02-02T10:00:15.571Z,5.00
2019-02-02T10:04:23.685Z,5.00
2019-02-02T10:08:31.829Z,5.00
2019-02-02T10:12:39.997Z,5.10
2019-02-02T10:16:48.147Z,5.20
2019-02-02T10:21:03.606Z,5.20
2019-02-02T10:25:05.607Z,5.10
2019-02-02T10:29:13.765Z,5.00
2019-02-02T10:33:21.907Z,5.00
2019-02-02T10:37:30.042Z,5.10
2019-02-02T10:41:38.170Z,5.00
2019-02-02T10:45:46.285Z,5.00
2019-02-02T10:49:54.418Z,5.10
2019-02-02T10:54:05.491Z,5.20
2019-02-02T10:58:10.753Z,5.40
2019-02-02T11:02:18.881Z,5.50
2019-02-02T11:06:27.033Z,5.40
2019-02-02T11:10:35.319Z,5.40
2019-02-02T11:14:43.375Z,5.30
2019-02-02T11:18:51.490Z,5.40
2019-02-02T11:22:59.771Z,5.40
2019-02-02T11:27:08.029Z,5.50
2019-02-02T11:31:16.025Z,5.50
2019-02-02T11:35:24.141Z,5.60
2019-02-02T11:39:32.266Z,5.60
2019-02-02T11:43:40.405Z,5.70
2019-02-02T11:47:48.553Z,5.70
2019-02-02T11:51:56.725Z,5.90
2019-02-02T11:56:04.850Z,6.10
2019-02-02T12:00:17.026Z,6.40
2019-02-02T12:04:25.158Z,6.60
2019-02-02T12:08:33.298Z,6.80
2019-02-02T12:12:42.257Z,6.90
2019-02-02T12:16:49.618Z,6.80
2019-02-02T12:20:57.858Z,6.70
2019-02-02T12:25:06.025Z,6.80
2019-02-02T12:29:14.173Z,6.80
2019-02-02T12:33:22.294Z,6.70
2019-02-02T12:37:30.481Z,6.50
2019-02-02T12:41:38.653Z,6.40
2019-02-02T12:45:49.478Z,6.40
2019-02-02T12:49:57.606Z,6.30
2019-02-02T12:54:05.737Z,6.20
2019-02-02T12:58:13.874Z,6.20
2019-02-02T13:02:21.990Z,6.00
2019-02-02T13:06:30.105Z,5.90
2019-02-02T13:10:38.229Z,5.80
2019-02-02T13:14:46.466Z,5.80
2019-02-02T13:18:54.639Z,5.80
2019-02-02T13:23:02.735Z,5.60
2019-02-02T13:27:10.878Z,5.50
2019-02-02T13:31:21.066Z,5.30
2019-02-02T13:35:27.702Z,5.30
2019-02-02T13:39:35.933Z,5.30
2019-02-02T13:43:44.054Z,5.20
2019-02-02T13:47:52.332Z,5.00
2019-02-02T13:52:00.437Z,5.00
2019-02-02T13:56:08.577Z,4.90
2019-02-02T14:00:19.034Z,4.90
2019-02-02T14:04:27.169Z,4.90
2019-02-02T14:08:35.297Z,4.70
2019-02-02T14:12:43.417Z,4.60
2019-02-02T14:16:51.541Z,4.50
2019-02-02T14:20:59.715Z,4.50
2019-02-02T14:25:07.978Z,4.50
2019-02-02T14:29:16.058Z,4.50
2019-02-02T14:33:24.185Z,4.40
2019-02-02T14:37:32.314Z,4.40
2019-02-02T14:41:40.445Z,4.40
2019-02-02T14:45:48.570Z,4.40
2019-02-02T14:49:56.721Z,4.30
2019-02-02T14:54:04.886Z,4.30
2019-02-02T14:58:13.031Z,4.20
2019-02-02T15:02:21.217Z,3.90
2019-02-02T15:06:29.357Z,3.80
2019-02-02T15:10:37.513Z,3.80
2019-02-02T15:14:45.711Z,3.80
2019-02-02T15:18:53.838Z,3.70
2019-02-02T15:23:01.983Z,3.70
2019-02-02T15:27:10.113Z,3.60
2019-02-02T15:31:18.382Z,3.60
2019-02-02T15:35:26.535Z,3.60
2019-02-02T15:39:34.669Z,3.60
2019-02-02T15:43:42.781Z,3.50
2019-02-02T15:47:50.899Z,3.40
2019-02-02T15:51:59.045Z,3.30
2019-02-02T15:56:07.233Z,3.20
2019-02-02T16:00:18.821Z,3.20
2019-02-02T16:04:26.942Z,3.20
2019-02-02T16:08:35.061Z,3.10
2019-02-02T16:12:43.269Z,3.10
2019-02-02T16:16:51.390Z,3.10
2019-02-02T16:20:59.506Z,3.10
2019-02-02T16:25:08.413Z,3.00
2019-02-02T16:29:16.570Z,2.90
2019-02-02T16:33:24.678Z,2.90
2019-02-02T16:37:32.887Z,2.80
2019-02-02T16:41:41.019Z,2.80
2019-02-02T16:45:49.152Z,2.70
2019-02-02T16:49:57.289Z,2.70
2019-02-02T16:54:05.462Z,2.70
2019-02-02T16:58:13.577Z,2.70
2019-02-02T17:02:21.693Z,2.70
2019-02-02T17:06:29.833Z,2.60
2019-02-02T17:10:38.021Z,2.60
2019-02-02T17:14:46.144Z,2.60
2019-02-02T17:18:54.253Z,2.60
2019-02-02T17:23:02.370Z,2.50
2019-02-02T17:27:10.494Z,2.40
2019-02-02T17:31:18.617Z,2.40
2019-02-02T17:35:26.745Z,2.40
2019-02-02T17:39:38.506Z,2.50
2019-02-02T17:43:46.629Z,2.40
2019-02-02T17:47:54.763Z,2.30
2019-02-02T17:52:02.904Z,2.30
2019-02-02T17:56:11.037Z,2.30
2019-02-02T18:00:30.674Z,2.30
2019-02-02T18:04:42.709Z,2.30
2019-02-02T18:08:46.905Z,2.30
2019-02-02T18:12:55.035Z,2.30
2019-02-02T18:17:03.210Z,2.30
2019-02-02T18:21:11.500Z,2.30
2019-02-02T18:25:19.711Z,2.30
2019-02-02T18:29:27.885Z,2.30
2019-02-02T18:33:36.072Z,2.30
2019-02-02T18:37:44.380Z,2.30
2019-02-02T18:41:52.680Z,2.30
2019-02-02T18:46:00.847Z,2.30
2019-02-02T18:50:11.295Z,2.30
2019-02-02T18:54:19.497Z,2.30
2019-02-02T18:58:27.712Z,2.30
2019-02-02T19:02:35.905Z,2.30
2019-02-02T19:06:44.070Z,2.30
2019-02-02T19:10:52.247Z,2.30
2019-02-02T19:15:00.467Z,2.30
2019-02-02T19:19:08.835Z,2.30
2019-02-02T19:23:24.691Z,2.30
2019-02-02T19:27:25.106Z,2.20
2019-02-02T19:31:33.279Z,2.20
2019-02-02T19:35:41.464Z,2.20
2019-02-02T19:39:49.693Z,2.20
2019-02-02T19:43:58.307Z,2.20
2019-02-02T19:48:06.484Z,2.20
2019-02-02T19:52:14.668Z,2.20
2019-02-02T19:56:23.017Z,2.20
2019-02-02T20:00:31.968Z,2.20
2019-02-02T20:04:40.139Z,2.20
2019-02-02T20:08:48.353Z,2.20
2019-02-02T20:12:56.593Z,2.10
2019-02-02T20:17:04.777Z,2.10
2019-02-02T20:21:13.069Z,2.10
2019-02-02T20:25:21.285Z,2.10
2019-02-02T20:29:29.457Z,2.10
2019-02-02T20:33:37.626Z,2.10
2019-02-02T20:37:45.794Z,2.10
2019-02-02T20:41:54.083Z,2.10
2019-02-02T20:46:02.292Z,2.00
2019-02-02T20:50:13.343Z,2.00
2019-02-02T20:54:21.607Z,2.00
2019-02-02T20:58:29.872Z,2.00
2019-02-02T21:02:38.031Z,2.00
2019-02-02T21:06:46.211Z,2.00
2019-02-02T21:10:54.389Z,2.10
2019-02-02T21:15:02.573Z,2.10
2019-02-02T21:19:10.787Z,2.00
2019-02-02T21:23:18.964Z,1.90
2019-02-02T21:27:27.161Z,1.90
2019-02-02T21:31:35.324Z,1.90
2019-02-02T21:35:43.526Z,2.00
2019-02-02T21:39:51.808Z,2.00
2019-02-02T21:44:00.085Z,1.90
2019-02-02T21:48:08.297Z,1.90
2019-02-02T21:52:16.448Z,1.90
2019-02-02T21:56:24.615Z,1.90
2019-02-02T22:00:35.015Z,1.90
2019-02-02T22:04:43.242Z,1.90
2019-02-02T22:08:51.426Z,1.80
2019-02-02T22:12:59.639Z,1.80
2019-02-02T22:17:07.895Z,1.80
2019-02-02T22:21:16.060Z,1.80
2019-02-02T22:25:26.263Z,1.80
2019-02-02T22:29:34.455Z,1.80
2019-02-02T22:33:42.707Z,1.80
2019-02-02T22:37:50.886Z,1.80
2019-02-02T22:41:59.092Z,1.70
2019-02-02T22:46:07.375Z,1.70
2019-02-02T22:50:18.185Z,1.80
2019-02-02T22:54:26.360Z,1.80
2019-02-02T22:58:34.529Z,1.80
2019-02-02T23:02:42.729Z,1.80
2019-02-02T23:06:57.800Z,1.70
2019-02-02T23:11:16.490Z,1.70
2019-02-02T23:15:51.660Z,1.70
2019-02-02T23:20:00.558Z,1.70
2019-02-02T23:24:08.242Z,1.70
2019-02-02T23:28:16.418Z,1.70
2019-02-02T23:32:24.587Z,1.70
2019-02-02T23:36:32.777Z,1.70
2019-02-02T23:40:40.952Z,1.70
2019-02-02T23:44:49.141Z,1.60
2019-02-02T23:48:57.365Z,1.60
2019-02-02T23:53:05.529Z,1.60
2019-02-02T23:57:13.719Z,1.70
